Date,TemperatureHighF,TemperatureAvgF,TemperatureLowF,DewpointHighF,DewpointAvgF,DewpointLowF,HumidityHigh,HumidityAvg,HumidityLow,PressureMaxIn,PressureMinIn,WindSpeedMaxMPH,WindSpeedAvgMPH,GustSpeedMaxMPH,PrecipitationSumIn
2013-3-1,55.2,46.2,36.5,22.0,14.9,7.4,37,28,22,29.53,29.53,0,0,0,0.00
2013-3-2,59.2,49.1,38.5,24.1,22.1,20.4,49,35,24,29.53,29.53,0,0,0,0.00
2013-3-3,65.0,53.1,40.5,24.1,19.3,7.2,45,28,12,29.53,29.53,0,0,0,0.00
2013-3-4,65.8,56.8,49.6,25.1,21.4,19.1,33,25,18,29.53,29.53,0,0,0,0.00
2013-3-5,57.4,49.0,39.5,22.2,19.0,12.8,49,31,17,29.53,29.53,0,0,0,0.00
2013-3-6,62.9,54.7,47.2,26.4,23.2,19.4,38,29,22,29.53,29.53,0,0,0,0.00
2013-3-7,64.5,54.4,41.6,23.3,20.1,17.4,41,27,18,29.53,29.53,0,0,0,0.00
2013-3-8,62.7,51.5,45.4,46.3,27.9,15.0,76,44,21,29.53,29.53,0,0,0,0.33
2013-3-9,50.1,45.3,39.4,37.1,26.7,18.6,71,49,30,29.53,29.53,0,0,0,0.01
2013-3-10,54.2,45.6,38.0,30.0,25.0,16.0,66,46,27,29.53,29.53,0,0,0,0.00
2013-3-11,57.1,47.3,36.4,21.4,18.9,12.1,52,34,17,29.53,29.53,0,0,0,0.00
2013-3-12,61.2,51.6,40.8,25.4,23.0,20.6,48,33,23,29.53,29.53,0,0,0,0.00
2013-3-13,63.2,53.5,42.5,26.9,24.4,19.8,51,33,21,29.53,29.53,0,0,0,0.00
2013-3-14,66.3,55.9,45.3,24.6,21.3,17.7,43,27,16,29.53,29.53,0,0,0,0.00
2013-3-15,70.8,57.9,45.2,22.1,19.1,15.3,35,23,13,29.53,29.53,0,0,0,0.00
2013-3-16,72.0,61.5,49.6,34.3,23.1,16.5,38,23,17,29.53,29.53,0,0,0,0.00
2013-3-17,59.0,53.4,48.5,34.8,33.5,31.8,54,47,38,29.53,29.53,0,0,0,0.00
2013-3-18,64.3,57.3,44.3,13.8,11.4,7.6,25,16,12,29.53,29.53,0,0,0,0.00
2013-3-19,65.3,54.7,47.1,20.9,14.7,9.6,27,21,15,29.53,29.53,0,0,0,0.00
2013-3-20,63.6,53.6,40.9,24.4,19.0,14.3,35,26,19,29.53,29.53,0,0,0,0.00
2013-3-21,69.6,60.3,52.7,31.8,21.1,8.9,38,24,10,29.53,29.53,0,0,0,0.00
2013-3-22,63.9,54.9,44.0,27.0,15.8,9.3,36,22,14,29.53,29.53,0,0,0,0.00
2013-3-23,53.1,46.4,37.8,27.6,6.7,-9.2,44,22,10,29.53,29.53,0,0,0,0.00
2013-3-24,53.0,42.9,32.0,3.6,-1.4,-8.6,20,15,12,29.53,29.53,0,0,0,0.00
2013-3-25,53.7,44.5,33.9,12.3,8.1,2.0,33,22,17,29.53,29.53,0,0,0,0.00
2013-3-26,63.9,51.1,38.1,16.0,11.7,7.6,30,21,14,29.53,29.53,0,0,0,0.00
2013-3-27,69.9,59.1,48.2,18.6,15.2,12.0,27,18,13,29.53,29.53,0,0,0,0.00
2013-3-28,73.5,63.2,52.2,25.1,18.8,12.2,24,18,13,29.53,29.53,0,0,0,0.00
2013-3-29,72.9,62.1,51.6,26.1,22.3,18.3,33,22,14,29.53,29.53,0,0,0,0.00
2013-3-30,74.5,61.8,48.2,28.2,22.4,18.7,33,23,14,29.53,29.53,0,0,0,0.00
2013-3-31,73.7,63.5,53.9,33.7,29.3,25.5,44,28,19,29.53,29.53,0,0,0,0.00